Time;durP1;ratioP1;P1;durP2;ratioP2;P2;SDS_P1;SDS_P2;PMS_P1;PMS_P2;Temp;Humidity;BMP_temperature;BMP_pressure;BME280_temperature;BME280_humidity;BME280_pressure;Samples;Min_cycle;Max_cycle;Signal;HPM_P1;HPM_P2
2021/07/01 00:01:45;;;;;;;;;;;15.90;95.10;;;;;;5033966;28;20396;-59
2021/07/01 00:04:10;;;;;;;;;;;15.90;95.20;;;;;;5016292;28;19918;-59
2021/07/01 00:06:36;;;;;;;;;;;15.90;95.40;;;;;;5033078;28;19921;-60
2021/07/01 00:09:02;;;;;;;;;;;16.00;95.50;;;;;;5033700;28;20004;-59
2021/07/01 00:11:27;;;;;;;;;;;15.90;95.60;;;;;;5033330;28;19917;-60
2021/07/01 00:13:53;;;;;;;;;;;15.90;95.60;;;;;;5033856;28;20319;-60
2021/07/01 00:16:18;;;;;;;;;;;15.90;95.70;;;;;;5033708;28;20429;-60
2021/07/01 00:18:44;;;;;;;;;;;15.90;95.90;;;;;;5033036;28;19921;-60
2021/07/01 00:21:10;;;;;;;;;;;16.00;96.00;;;;;;5033678;28;20012;-60
2021/07/01 00:23:35;;;;;;;;;;;15.90;96.00;;;;;;5015646;28;19925;-59
2021/07/01 00:26:01;;;;;;;;;;;16.00;96.10;;;;;;5033059;28;19921;-60
2021/07/01 00:28:26;;;;;;;;;;;15.90;96.00;;;;;;5033207;28;19963;-59
2021/07/01 00:30:52;;;;;;;;;;;15.90;96.20;;;;;;5014891;28;19932;-60
2021/07/01 00:33:17;;;;;;;;;;;15.90;96.20;;;;;;5015731;28;20302;-60
2021/07/01 00:35:43;;;;;;;;;;;15.90;96.20;;;;;;5033410;28;20369;-59
2021/07/01 00:38:08;;;;;;;;;;;15.90;96.20;;;;;;5032537;28;20292;-60
2021/07/01 00:40:34;;;;;;;;;;;15.90;96.20;;;;;;5033334;28;19959;-60
2021/07/01 00:43:00;;;;;;;;;;;15.90;96.30;;;;;;5015368;28;19917;-60
2021/07/01 00:45:25;;;;;;;;;;;15.80;96.40;;;;;;5015020;28;19921;-60
2021/07/01 00:47:51;;;;;;;;;;;15.90;96.50;;;;;;5014999;28;20284;-60
2021/07/01 00:50:17;;;;;;;;;;;15.90;96.60;;;;;;5032696;28;19924;-60
2021/07/01 00:52:43;;;;;;;;;;;15.90;96.80;;;;;;5015111;28;19925;-60
2021/07/01 00:55:12;;;;;;;;;;;15.90;96.70;;;;;;5033105;28;19917;-60
2021/07/01 00:57:41;;;;;;;;;;;15.90;96.70;;;;;;5014319;28;19948;-60
2021/07/01 01:00:18;;;;;;;;;;;15.90;96.70;;;;;;5015110;28;19952;-60
2021/07/01 01:02:44;;;;;;;;;;;15.90;96.80;;;;;;5014540;28;19944;-60
2021/07/01 01:05:19;;;;;;;;;;;15.90;96.80;;;;;;5015073;28;19940;-60
2021/07/01 01:07:44;;;;;;;;;;;15.90;96.90;;;;;;5014314;28;19917;-60
2021/07/01 01:10:11;;;;;;;;;;;15.90;96.90;;;;;;5032722;28;20378;-60
2021/07/01 01:12:37;;;;;;;;;;;15.90;96.90;;;;;;4998488;28;20431;-60
2021/07/01 01:15:05;;;;;;;;;;;15.90;96.90;;;;;;5014457;28;19921;-60
2021/07/01 01:17:30;;;;;;;;;;;15.90;97.00;;;;;;5032152;28;19917;-60
2021/07/01 01:19:56;;;;;;;;;;;15.90;97.10;;;;;;5032145;28;19924;-60
2021/07/01 01:22:26;;;;;;;;;;;16.00;97.20;;;;;;5014498;28;19921;-60
2021/07/01 01:24:58;;;;;;;;;;;16.00;97.30;;;;;;5014703;28;19925;-59
2021/07/01 01:27:23;;;;;;;;;;;16.00;97.30;;;;;;5031617;28;20332;-59
2021/07/01 01:29:50;;;;;;;;;;;16.00;97.20;;;;;;5014505;28;19917;-59
2021/07/01 01:32:17;;;;;;;;;;;16.00;97.20;;;;;;4997829;28;19918;-59
2021/07/01 01:34:43;;;;;;;;;;;15.90;97.10;;;;;;5014659;28;19947;-59
2021/07/01 01:37:09;;;;;;;;;;;15.90;97.10;;;;;;5032016;28;19918;-59
2021/07/01 01:39:35;;;;;;;;;;;15.90;97.20;;;;;;5013974;28;19972;-60
2021/07/01 01:42:04;;;;;;;;;;;15.90;97.20;;;;;;5031817;28;19946;-59
2021/07/01 01:44:31;;;;;;;;;;;15.90;97.20;;;;;;5013796;28;19917;-59
2021/07/01 01:46:57;;;;;;;;;;;15.90;97.20;;;;;;5013655;28;19921;-59
2021/07/01 01:49:22;;;;;;;;;;;15.90;97.30;;;;;;5014501;28;19925;-59
2021/07/01 01:51:50;;;;;;;;;;;15.90;97.30;;;;;;5013800;28;19921;-59
2021/07/01 01:54:16;;;;;;;;;;;15.90;97.40;;;;;;5014209;28;19924;-59
2021/07/01 01:56:48;;;;;;;;;;;15.90;97.40;;;;;;5031639;28;19924;-60
2021/07/01 01:59:24;;;;;;;;;;;15.80;97.30;;;;;;5014057;28;20020;-59
2021/07/01 02:02:09;;;;;;;;;;;15.80;97.30;;;;;;5031300;28;20009;-59
2021/07/01 02:04:44;;;;;;;;;;;15.80;97.50;;;;;;5014099;28;19917;-60
2021/07/01 02:07:09;;;;;;;;;;;15.90;97.60;;;;;;5013686;28;19921;-59
2021/07/01 02:09:55;;;;;;;;;;;15.90;97.70;;;;;;5031365;28;19924;-59
2021/07/01 02:12:21;;;;;;;;;;;15.90;97.70;;;;;;5013748;28;19917;-59
2021/07/01 02:14:47;;;;;;;;;;;15.80;97.60;;;;;;4997130;28;20039;-60
2021/07/01 02:17:29;;;;;;;;;;;15.90;97.70;;;;;;5013714;28;19917;-59
2021/07/01 02:19:58;;;;;;;;;;;15.90;97.70;;;;;;5013421;28;20286;-59
2021/07/01 02:22:25;;;;;;;;;;;15.90;97.70;;;;;;5013158;28;19925;-59
2021/07/01 02:24:51;;;;;;;;;;;15.90;97.70;;;;;;5013450;28;19917;-60
2021/07/01 02:27:16;;;;;;;;;;;15.90;97.80;;;;;;5013583;28;19928;-59
2021/07/01 02:29:42;;;;;;;;;;;15.90;97.80;;;;;;4997556;28;19963;-60
2021/07/01 02:32:13;;;;;;;;;;;15.90;97.80;;;;;;5013114;28;19918;-60
2021/07/01 02:34:40;;;;;;;;;;;15.90;97.80;;;;;;5013829;28;19918;-60
2021/07/01 02:37:24;;;;;;;;;;;15.90;97.80;;;;;;5030921;28;20332;-60
2021/07/01 02:40:00;;;;;;;;;;;15.90;97.80;;;;;;5013715;28;20007;-60
2021/07/01 02:42:32;;;;;;;;;;;15.90;97.80;;;;;;5013196;28;19945;-60
2021/07/01 02:44:57;;;;;;;;;;;15.90;97.90;;;;;;5013586;28;19952;-60
2021/07/01 02:47:46;;;;;;;;;;;15.90;98.00;;;;;;5030628;28;19923;-60
2021/07/01 02:50:12;;;;;;;;;;;16.00;98.00;;;;;;5013578;28;20012;-60
2021/07/01 02:52:38;;;;;;;;;;;15.90;98.00;;;;;;5030825;28;19967;-61
2021/07/01 02:55:05;;;;;;;;;;;16.00;98.00;;;;;;5015818;28;19920;-60
2021/07/01 02:57:33;;;;;;;;;;;15.90;97.90;;;;;;5017205;28;20321;-60
2021/07/01 02:59:58;;;;;;;;;;;15.90;98.00;;;;;;5034768;28;19971;-60
2021/07/01 03:02:38;;;;;;;;;;;15.90;98.00;;;;;;5002563;28;19917;-60
2021/07/01 03:05:21;;;;;;;;;;;15.90;98.10;;;;;;4997473;28;19917;-60
2021/07/01 03:07:46;;;;;;;;;;;15.90;98.00;;;;;;4981139;28;19983;-60
2021/07/01 03:10:12;;;;;;;;;;;15.90;98.00;;;;;;4997282;28;19918;-60
2021/07/01 03:13:03;;;;;;;;;;;15.90;98.10;;;;;;5012033;28;19920;-60
2021/07/01 03:15:32;;;;;;;;;;;15.90;98.10;;;;;;4997115;28;19917;-60
2021/07/01 03:17:58;;;;;;;;;;;15.90;98.10;;;;;;5014867;28;19918;-60
2021/07/01 03:20:44;;;;;;;;;;;15.90;98.10;;;;;;4983686;28;20547;-60
2021/07/01 03:23:34;;;;;;;;;;;15.90;98.10;;;;;;4989849;28;19944;-60
2021/07/01 03:26:00;;;;;;;;;;;15.90;98.20;;;;;;5014889;28;19921;-60
2021/07/01 03:28:26;;;;;;;;;;;15.90;98.20;;;;;;5014575;28;20011;-60
2021/07/01 03:30:52;;;;;;;;;;;15.90;98.20;;;;;;5014345;28;20005;-60
2021/07/01 03:33:18;;;;;;;;;;;15.90;98.30;;;;;;4997129;28;19921;-59
2021/07/01 03:35:44;;;;;;;;;;;16.00;98.40;;;;;;4996672;28;20391;-60
2021/07/01 03:38:38;;;;;;;;;;;16.00;98.40;;;;;;5014204;28;19925;-60
2021/07/01 03:41:16;;;;;;;;;;;16.00;98.30;;;;;;5014421;28;20012;-60
2021/07/01 03:43:45;;;;;;;;;;;16.00;98.30;;;;;;5014585;28;20017;-60
2021/07/01 03:46:12;;;;;;;;;;;16.00;98.30;;;;;;5014123;28;19927;-60
2021/07/01 03:48:41;;;;;;;;;;;16.00;98.20;;;;;;5014276;28;19925;-59
2021/07/01 03:51:45;;;;;;;;;;;15.90;98.20;;;;;;5013917;28;19968;-60
2021/07/01 03:54:25;;;;;;;;;;;15.90;98.20;;;;;;4996425;28;20351;-60
2021/07/01 03:56:51;;;;;;;;;;;15.90;98.20;;;;;;4996480;28;19918;-60
2021/07/01 03:59:25;;;;;;;;;;;15.90;98.20;;;;;;5014459;28;20016;-60
2021/07/01 04:02:13;;;;;;;;;;;15.90;98.30;;;;;;4985676;28;19940;-60
2021/07/01 04:04:39;;;;;;;;;;;15.90;98.30;;;;;;4996552;28;19985;-60
2021/07/01 04:07:06;;;;;;;;;;;15.90;98.30;;;;;;4994831;28;19921;-59
2021/07/01 04:09:33;;;;;;;;;;;15.90;98.30;;;;;;4996537;28;19967;-60
2021/07/01 04:12:34;;;;;;;;;;;15.90;98.30;;;;;;4953127;29;19950;-60
2021/07/01 04:15:18;;;;;;;;;;;15.90;98.40;;;;;;5008443;28;19972;-60
2021/07/01 04:18:29;;;;;;;;;;;15.90;98.40;;;;;;5013722;28;20000;-60
2021/07/01 04:21:28;;;;;;;;;;;15.90;98.40;;;;;;4969259;28;19923;-60
2021/07/01 04:24:11;;;;;;;;;;;15.90;98.40;;;;;;5014405;28;19928;-60
2021/07/01 04:26:53;;;;;;;;;;;15.90;98.50;;;;;;4995503;28;19944;-60
2021/07/01 04:29:22;;;;;;;;;;;15.90;98.50;;;;;;4996171;28;19917;-60
2021/07/01 04:31:50;;;;;;;;;;;16.00;98.50;;;;;;5012943;28;19944;-60
2021/07/01 04:34:16;;;;;;;;;;;15.90;98.50;;;;;;5013669;28;19996;-59
2021/07/01 04:36:41;;;;;;;;;;;15.90;98.50;;;;;;5013018;28;19917;-62
2021/07/01 04:39:09;;;;;;;;;;;15.90;98.50;;;;;;5013449;28;20341;-60
2021/07/01 04:41:45;;;;;;;;;;;15.90;98.40;;;;;;4995910;28;20281;-60
2021/07/01 04:44:11;;;;;;;;;;;15.90;98.50;;;;;;4995389;28;19924;-60
2021/07/01 04:46:38;;;;;;;;;;;15.90;98.50;;;;;;4995553;28;19921;-60
2021/07/01 04:49:04;;;;;;;;;;;15.90;98.50;;;;;;4995222;28;19968;-60
2021/07/01 04:51:34;;;;;;;;;;;15.90;98.50;;;;;;4995642;28;19928;-60
2021/07/01 04:54:06;;;;;;;;;;;15.90;98.50;;;;;;5013185;28;20032;-60
2021/07/01 04:56:50;;;;;;;;;;;15.90;98.60;;;;;;5012681;28;19987;-60
2021/07/01 04:59:18;;;;;;;;;;;15.90;98.70;;;;;;4995729;28;19918;-59
2021/07/01 05:02:19;;;;;;;;;;;16.00;98.80;;;;;;5012178;28;20028;-60
2021/07/01 05:05:05;;;;;;;;;;;15.90;98.90;;;;;;4995501;28;19929;-60
2021/07/01 05:07:31;;;;;;;;;;;15.90;98.70;;;;;;4994538;28;19928;-60
2021/07/01 05:09:56;;;;;;;;;;;16.00;98.80;;;;;;4995335;28;19917;-60
2021/07/01 05:12:42;;;;;;;;;;;16.00;98.80;;;;;;5011967;28;19919;-60
2021/07/01 05:15:09;;;;;;;;;;;16.00;98.70;;;;;;4995456;28;20041;-60
2021/07/01 05:17:34;;;;;;;;;;;16.00;98.70;;;;;;5011872;28;20397;-60
2021/07/01 05:20:01;;;;;;;;;;;16.00;98.70;;;;;;4979133;28;19944;-60
2021/07/01 05:22:29;;;;;;;;;;;16.00;98.70;;;;;;4994932;28;19921;-60
2021/07/01 05:25:15;;;;;;;;;;;16.00;98.70;;;;;;5010730;28;20381;-60
2021/07/01 05:27:59;;;;;;;;;;;16.10;98.80;;;;;;5011987;28;19925;-62
2021/07/01 05:30:45;;;;;;;;;;;16.10;98.90;;;;;;5012207;28;19918;-60
2021/07/01 05:33:45;;;;;;;;;;;16.10;98.90;;;;;;5011705;28;19968;-59
2021/07/01 05:36:11;;;;;;;;;;;16.10;98.90;;;;;;5012431;28;19922;-60
2021/07/01 05:38:38;;;;;;;;;;;16.20;98.90;;;;;;4993976;28;19932;-61
2021/07/01 05:41:03;;;;;;;;;;;16.20;98.90;;;;;;5012506;28;19996;-60
2021/07/01 05:43:29;;;;;;;;;;;16.20;98.90;;;;;;5012208;28;20396;-60
2021/07/01 05:45:55;;;;;;;;;;;16.20;98.90;;;;;;5011776;28;20461;-60
2021/07/01 05:48:22;;;;;;;;;;;16.20;98.90;;;;;;5011931;28;20016;-60
2021/07/01 05:50:52;;;;;;;;;;;16.20;98.90;;;;;;5012251;28;19924;-60
2021/07/01 05:53:31;;;;;;;;;;;16.30;98.90;;;;;;5012140;28;19949;-60
2021/07/01 05:55:56;;;;;;;;;;;16.20;98.90;;;;;;5012194;28;19925;-60
2021/07/01 05:58:22;;;;;;;;;;;16.30;98.90;;;;;;5011277;28;20453;-59
2021/07/01 06:00:47;;;;;;;;;;;16.30;99.00;;;;;;4994494;28;19959;-60
2021/07/01 06:03:13;;;;;;;;;;;16.40;99.10;;;;;;5011530;28;19917;-60
2021/07/01 06:05:48;;;;;;;;;;;16.40;99.10;;;;;;5009652;28;20346;-59
2021/07/01 06:08:32;;;;;;;;;;;16.50;99.10;;;;;;5028665;28;20023;-60
2021/07/01 06:11:01;;;;;;;;;;;16.60;99.20;;;;;;5025515;28;19943;-60
2021/07/01 06:13:27;;;;;;;;;;;16.60;99.20;;;;;;5050930;28;19913;-60
2021/07/01 06:15:53;;;;;;;;;;;16.70;99.30;;;;;;5033655;28;19932;-60
2021/07/01 06:18:20;;;;;;;;;;;16.80;99.40;;;;;;5051015;28;19917;-60
2021/07/01 06:20:46;;;;;;;;;;;16.80;99.30;;;;;;5045344;28;20000;-60
2021/07/01 06:23:11;;;;;;;;;;;16.80;99.30;;;;;;5046395;28;20012;-60
2021/07/01 06:25:37;;;;;;;;;;;16.80;99.20;;;;;;5049840;28;20580;-60
2021/07/01 06:28:03;;;;;;;;;;;16.80;99.20;;;;;;5015226;28;20385;-60
2021/07/01 06:32:03;;;;;;;;;;;16.80;99.00;;;;;;4987003;28;19922;-62
2021/07/01 06:34:29;;;;;;;;;;;16.80;99.00;;;;;;4986334;28;20347;-61
2021/07/01 06:36:56;;;;;;;;;;;16.70;98.80;;;;;;4986068;28;19922;-62
2021/07/01 06:39:43;;;;;;;;;;;16.60;98.80;;;;;;4981586;28;20010;-61
2021/07/01 06:42:32;;;;;;;;;;;16.60;98.90;;;;;;4984399;28;19990;-62
2021/07/01 06:45:17;;;;;;;;;;;16.70;99.10;;;;;;4983124;28;19926;-62
2021/07/01 06:48:02;;;;;;;;;;;16.70;99.10;;;;;;4978545;28;19968;-61
2021/07/01 06:50:46;;;;;;;;;;;16.70;99.10;;;;;;4985251;28;19959;-62
2021/07/01 06:53:41;;;;;;;;;;;16.70;99.10;;;;;;4983278;28;19968;-61
2021/07/01 06:56:26;;;;;;;;;;;16.70;99.10;;;;;;4985834;28;19973;-62
2021/07/01 06:58:52;;;;;;;;;;;16.70;99.10;;;;;;4985310;28;19953;-62
2021/07/01 07:01:19;;;;;;;;;;;16.70;99.10;;;;;;4985882;28;19924;-62
2021/07/01 07:03:45;;;;;;;;;;;16.80;99.20;;;;;;4983802;28;19918;-62
2021/07/01 07:06:10;;;;;;;;;;;16.80;99.30;;;;;;4984314;28;19942;-62
2021/07/01 07:08:36;;;;;;;;;;;16.90;99.30;;;;;;4985630;28;19922;-62
2021/07/01 07:11:02;;;;;;;;;;;16.90;99.30;;;;;;4985802;28;20009;-62
2021/07/01 07:13:28;;;;;;;;;;;16.90;99.30;;;;;;4983908;28;19918;-62
2021/07/01 07:15:54;;;;;;;;;;;16.90;99.30;;;;;;4985544;28;19925;-62
2021/07/01 07:18:27;;;;;;;;;;;17.00;99.30;;;;;;4985085;28;20289;-62
2021/07/01 07:20:54;;;;;;;;;;;17.00;99.30;;;;;;4984095;28;19957;-62
2021/07/01 07:23:24;;;;;;;;;;;17.00;99.40;;;;;;4985059;28;19937;-62
2021/07/01 07:25:50;;;;;;;;;;;17.00;99.30;;;;;;4985585;28;20374;-62
2021/07/01 07:28:17;;;;;;;;;;;17.10;99.20;;;;;;4985332;28;19939;-61
2021/07/01 07:30:43;;;;;;;;;;;17.00;99.20;;;;;;4994258;28;20404;-62
2021/07/01 07:33:10;;;;;;;;;;;17.10;99.30;;;;;;5005032;28;19918;-62
2021/07/01 07:35:36;;;;;;;;;;;17.20;99.50;;;;;;5004408;28;19921;-62
2021/07/01 07:38:03;;;;;;;;;;;17.40;99.60;;;;;;5004575;28;20279;-62
2021/07/01 07:40:29;;;;;;;;;;;17.50;99.70;;;;;;5004868;28;19918;-62
2021/07/01 07:42:54;;;;;;;;;;;17.60;99.70;;;;;;4994036;28;19924;-62
2021/07/01 07:45:20;;;;;;;;;;;17.80;99.80;;;;;;4991815;28;20290;-62
2021/07/01 07:47:46;;;;;;;;;;;17.90;99.70;;;;;;4991390;28;19918;-61
2021/07/01 07:50:12;;;;;;;;;;;18.00;99.70;;;;;;4990032;28;20005;-62
2021/07/01 07:52:45;;;;;;;;;;;18.20;99.70;;;;;;4989996;28;20004;-62
2021/07/01 07:55:11;;;;;;;;;;;18.30;99.60;;;;;;4988368;28;19926;-62
2021/07/01 07:57:37;;;;;;;;;;;18.40;99.40;;;;;;4977243;28;19922;-62
2021/07/01 08:00:04;;;;;;;;;;;18.50;99.30;;;;;;4989312;28;19925;-62
2021/07/01 08:02:49;;;;;;;;;;;18.60;99.30;;;;;;4989148;28;20234;-61
2021/07/01 08:05:18;;;;;;;;;;;18.60;99.20;;;;;;4990402;28;20382;-62
2021/07/01 08:07:44;;;;;;;;;;;18.60;99.10;;;;;;4991068;28;19914;-61
2021/07/01 08:10:12;;;;;;;;;;;18.60;99.20;;;;;;4991441;28;19932;-61
2021/07/01 08:12:43;;;;;;;;;;;18.70;99.20;;;;;;4990945;28;19918;-60
2021/07/01 08:15:15;;;;;;;;;;;18.80;99.30;;;;;;4991431;28;20041;-61
2021/07/01 08:17:44;;;;;;;;;;;18.80;99.10;;;;;;4990583;28;19955;-61
2021/07/01 08:20:11;;;;;;;;;;;18.70;99.00;;;;;;4991370;28;19960;-61
2021/07/01 08:22:37;;;;;;;;;;;18.70;99.00;;;;;;4991313;28;20005;-60
2021/07/01 08:25:02;;;;;;;;;;;18.80;99.20;;;;;;4990912;28;20565;-61
2021/07/01 08:27:28;;;;;;;;;;;18.90;99.40;;;;;;4991080;28;19984;-61
2021/07/01 08:29:54;;;;;;;;;;;19.00;99.40;;;;;;4990612;28;19943;-62
2021/07/01 08:32:20;;;;;;;;;;;19.00;99.30;;;;;;4990914;28;19922;-60
2021/07/01 08:34:46;;;;;;;;;;;19.00;99.10;;;;;;4991026;28;20279;-61
2021/07/01 08:37:12;;;;;;;;;;;19.00;99.10;;;;;;4990341;28;20374;-61
2021/07/01 08:39:38;;;;;;;;;;;19.00;99.20;;;;;;4989545;28;20402;-61
2021/07/01 08:42:04;;;;;;;;;;;19.10;99.20;;;;;;4990817;28;19921;-61
2021/07/01 08:44:43;;;;;;;;;;;19.10;99.20;;;;;;4990550;28;19925;-61
2021/07/01 08:47:11;;;;;;;;;;;19.10;99.20;;;;;;4990043;28;19956;-62
2021/07/01 08:49:50;;;;;;;;;;;19.20;99.30;;;;;;4990904;28;19925;-60
2021/07/01 08:52:19;;;;;;;;;;;19.20;99.20;;;;;;4990698;28;19971;-61
2021/07/01 08:54:47;;;;;;;;;;;19.20;99.20;;;;;;4989237;28;19917;-61
2021/07/01 08:57:13;;;;;;;;;;;19.10;99.10;;;;;;4990541;28;19952;-61
2021/07/01 08:59:43;;;;;;;;;;;19.10;99.10;;;;;;4988905;28;20290;-61
2021/07/01 09:02:10;;;;;;;;;;;19.10;99.20;;;;;;4990301;28;20016;-63
2021/07/01 09:04:55;;;;;;;;;;;19.10;99.30;;;;;;4990030;28;19914;-63
2021/07/01 09:07:21;;;;;;;;;;;19.10;99.30;;;;;;4990283;28;19948;-60
2021/07/01 09:09:55;;;;;;;;;;;19.10;99.40;;;;;;4989461;28;19997;-61
2021/07/01 09:12:22;;;;;;;;;;;19.20;99.40;;;;;;4989311;28;20383;-61
2021/07/01 09:14:50;;;;;;;;;;;19.30;99.60;;;;;;4989153;28;19940;-61
2021/07/01 09:17:16;;;;;;;;;;;19.40;99.70;;;;;;4987408;28;19994;-61
2021/07/01 09:19:43;;;;;;;;;;;19.50;99.60;;;;;;4990562;28;19918;-61
2021/07/01 09:22:12;;;;;;;;;;;19.60;99.60;;;;;;4990058;28;19917;-61
2021/07/01 09:24:38;;;;;;;;;;;19.60;99.50;;;;;;4989555;28;20377;-61
2021/07/01 09:27:08;;;;;;;;;;;19.60;99.30;;;;;;4990013;28;20020;-61
2021/07/01 09:29:34;;;;;;;;;;;19.50;99.30;;;;;;4988461;28;19925;-61
2021/07/01 09:32:00;;;;;;;;;;;19.60;99.30;;;;;;4989983;28;19975;-60
2021/07/01 09:34:26;;;;;;;;;;;19.60;99.40;;;;;;4987890;28;20016;-60
2021/07/01 09:36:55;;;;;;;;;;;19.60;99.30;;;;;;4988230;28;19922;-60
2021/07/01 09:39:22;;;;;;;;;;;19.60;99.20;;;;;;4987888;28;19928;-63
2021/07/01 09:41:47;;;;;;;;;;;19.60;99.20;;;;;;4987695;28;20019;-61
2021/07/01 09:44:16;;;;;;;;;;;19.60;99.20;;;;;;5036044;28;19916;-60
2021/07/01 09:46:45;;;;;;;;;;;19.50;99.20;;;;;;5090867;28;19916;-63
2021/07/01 09:49:12;;;;;;;;;;;19.40;99.20;;;;;;5091989;28;19951;-63
2021/07/01 09:51:38;;;;;;;;;;;19.50;99.40;;;;;;5090772;28;19972;-62
2021/07/01 09:54:04;;;;;;;;;;;19.50;99.50;;;;;;5046474;28;20041;-62
2021/07/01 09:56:37;;;;;;;;;;;19.60;99.60;;;;;;4980188;28;19918;-61
2021/07/01 09:59:04;;;;;;;;;;;19.60;99.60;;;;;;4987384;28;19918;-61
2021/07/01 10:01:32;;;;;;;;;;;19.60;99.50;;;;;;4989293;28;19918;-60
2021/07/01 10:03:59;;;;;;;;;;;19.60;99.50;;;;;;4987999;28;19925;-60
2021/07/01 10:06:25;;;;;;;;;;;19.60;99.50;;;;;;4987694;28;19918;-61
2021/07/01 10:08:51;;;;;;;;;;;19.70;99.60;;;;;;4987812;28;19922;-61
2021/07/01 10:11:37;;;;;;;;;;;19.70;99.60;;;;;;4989028;28;19921;-60
2021/07/01 10:14:04;;;;;;;;;;;19.80;99.60;;;;;;4988605;28;19925;-61
2021/07/01 10:16:30;;;;;;;;;;;19.90;99.80;;;;;;4989416;28;19918;-61
2021/07/01 10:18:57;;;;;;;;;;;19.90;99.50;;;;;;4988705;28;19918;-61
2021/07/01 10:21:25;;;;;;;;;;;19.90;99.40;;;;;;4989335;28;19993;-61
2021/07/01 10:24:05;;;;;;;;;;;19.90;99.30;;;;;;4989512;28;19918;-61
2021/07/01 10:26:37;;;;;;;;;;;20.00;99.60;;;;;;4989075;28;19918;-61
2021/07/01 10:29:02;;;;;;;;;;;20.30;99.90;;;;;;4988867;28;19960;-61
2021/07/01 10:31:48;;;;;;;;;;;20.60;99.90;;;;;;4988775;28;19953;-61
2021/07/01 10:34:14;;;;;;;;;;;20.90;99.90;;;;;;4989188;28;19918;-61
2021/07/01 10:36:40;;;;;;;;;;;21.30;99.90;;;;;;4988616;28;19947;-61
2021/07/01 10:39:06;;;;;;;;;;;21.60;99.90;;;;;;4989109;28;19922;-61
2021/07/01 10:41:32;;;;;;;;;;;21.80;99.60;;;;;;4989335;28;19941;-61
2021/07/01 10:43:58;;;;;;;;;;;21.90;98.60;;;;;;4988762;28;19922;-61
2021/07/01 10:46:37;;;;;;;;;;;21.90;98.10;;;;;;4989304;28;20267;-61
2021/07/01 10:49:03;;;;;;;;;;;21.90;98.30;;;;;;4988606;28;19917;-61
2021/07/01 10:51:29;;;;;;;;;;;21.90;98.40;;;;;;4988880;28;19957;-60
2021/07/01 10:54:08;;;;;;;;;;;21.80;97.90;;;;;;4987923;28;19922;-61
2021/07/01 10:56:43;;;;;;;;;;;21.70;97.70;;;;;;4988865;28;20363;-61
2021/07/01 10:59:10;;;;;;;;;;;21.60;98.00;;;;;;4988729;28;20389;-61
2021/07/01 11:01:38;;;;;;;;;;;21.60;98.40;;;;;;4987756;28;19925;-61
2021/07/01 11:04:08;;;;;;;;;;;21.60;98.60;;;;;;4988910;28;19925;-60
2021/07/01 11:06:35;;;;;;;;;;;21.70;98.60;;;;;;4988783;28;20063;-61
2021/07/01 11:09:01;;;;;;;;;;;21.80;98.80;;;;;;4988894;28;19924;-61
2021/07/01 11:11:31;;;;;;;;;;;22.10;98.90;;;;;;4987033;28;20285;-61
2021/07/01 11:14:02;;;;;;;;;;;22.30;99.00;;;;;;4988675;28;19917;-61
2021/07/01 11:16:32;;;;;;;;;;;22.50;98.70;;;;;;4988503;28;19918;-61
2021/07/01 11:18:57;;;;;;;;;;;22.70;98.50;;;;;;4992028;28;20001;-61
2021/07/01 11:21:23;;;;;;;;;;;22.90;98.30;;;;;;4992344;28;20095;-61
2021/07/01 11:23:50;;;;;;;;;;;22.90;97.90;;;;;;4990364;28;20251;-61
2021/07/01 11:26:22;;;;;;;;;;;22.80;97.10;;;;;;4991978;28;19922;-61
2021/07/01 11:28:48;;;;;;;;;;;22.60;97.30;;;;;;4991222;28;19918;-61
2021/07/01 11:31:17;;;;;;;;;;;22.50;97.80;;;;;;4991827;28;19926;-61
2021/07/01 11:33:51;;;;;;;;;;;22.40;98.00;;;;;;4990639;28;20404;-61
2021/07/01 11:36:18;;;;;;;;;;;22.30;97.80;;;;;;4991553;28;19944;-61
2021/07/01 11:38:45;;;;;;;;;;;22.10;97.40;;;;;;4991629;28;19924;-61
2021/07/01 11:41:11;;;;;;;;;;;22.00;98.10;;;;;;4991498;28;19918;-61
2021/07/01 11:43:37;;;;;;;;;;;22.60;99.80;;;;;;4991719;28;19918;-60
2021/07/01 11:46:03;;;;;;;;;;;23.70;99.90;;;;;;4991741;28;19928;-61
2021/07/01 11:48:30;;;;;;;;;;;24.40;99.90;;;;;;4991003;28;19921;-61
2021/07/01 11:50:56;;;;;;;;;;;25.10;99.40;;;;;;4991694;28;19930;-61
2021/07/01 11:53:22;;;;;;;;;;;25.50;97.40;;;;;;4991314;28;19918;-61
2021/07/01 11:55:49;;;;;;;;;;;25.60;96.80;;;;;;4991618;28;20393;-61
2021/07/01 11:58:14;;;;;;;;;;;25.50;96.50;;;;;;4991211;28;19925;-61
2021/07/01 12:00:40;;;;;;;;;;;25.30;96.60;;;;;;4991193;28;19922;-61
2021/07/01 12:03:06;;;;;;;;;;;25.00;96.00;;;;;;4983424;28;19953;-61
2021/07/01 12:05:33;;;;;;;;;;;24.60;96.00;;;;;;4988053;28;19925;-60
2021/07/01 12:07:59;;;;;;;;;;;24.20;95.90;;;;;;4989911;28;19918;-61
2021/07/01 12:10:25;;;;;;;;;;;23.70;96.50;;;;;;4991176;28;19922;-61
2021/07/01 12:12:51;;;;;;;;;;;23.30;96.90;;;;;;4990785;28;19925;-61
2021/07/01 12:15:17;;;;;;;;;;;23.10;97.50;;;;;;4991404;28;20277;-63
2021/07/01 12:17:58;;;;;;;;;;;23.00;98.10;;;;;;4990960;28;19918;-60
2021/07/01 12:20:28;;;;;;;;;;;23.00;98.50;;;;;;4991021;28;19967;-60
2021/07/01 12:22:54;;;;;;;;;;;23.20;98.60;;;;;;4991099;28;19924;-63
2021/07/01 12:25:25;;;;;;;;;;;23.40;98.80;;;;;;4989564;28;20001;-61
2021/07/01 12:28:25;;;;;;;;;;;23.80;98.90;;;;;;4990854;28;19924;-61
2021/07/01 12:30:56;;;;;;;;;;;23.90;98.70;;;;;;5000131;28;20010;-60
2021/07/01 12:33:30;;;;;;;;;;;24.10;98.20;;;;;;4990848;28;19917;-60
2021/07/01 12:36:06;;;;;;;;;;;23.90;97.10;;;;;;4981832;28;19922;-61
2021/07/01 12:38:31;;;;;;;;;;;23.50;97.20;;;;;;4985137;28;19922;-60
2021/07/01 12:40:59;;;;;;;;;;;23.20;97.30;;;;;;4988783;28;19975;-61
2021/07/01 12:43:43;;;;;;;;;;;22.80;97.10;;;;;;4990444;28;19918;-60
2021/07/01 12:46:09;;;;;;;;;;;22.60;97.60;;;;;;4970584;28;19918;-61
2021/07/01 12:48:38;;;;;;;;;;;22.30;97.90;;;;;;4985399;28;19918;-60
2021/07/01 12:51:23;;;;;;;;;;;22.10;98.40;;;;;;4989932;28;19925;-60
2021/07/01 12:53:48;;;;;;;;;;;22.10;98.80;;;;;;4990595;28;19946;-60
2021/07/01 12:56:30;;;;;;;;;;;22.10;98.60;;;;;;4990157;28;19914;-60
2021/07/01 12:58:56;;;;;;;;;;;22.20;99.10;;;;;;4978718;28;19922;-62
2021/07/01 13:01:21;;;;;;;;;;;22.40;99.50;;;;;;4972733;28;20405;-62
2021/07/01 13:03:47;;;;;;;;;;;22.50;99.40;;;;;;4988444;28;19926;-60
2021/07/01 13:06:15;;;;;;;;;;;22.60;99.30;;;;;;4979253;28;20011;-60
2021/07/01 13:08:40;;;;;;;;;;;22.70;99.20;;;;;;4985748;28;20043;-59
2021/07/01 13:11:06;;;;;;;;;;;22.70;99.20;;;;;;4986927;28;19960;-60
2021/07/01 13:13:31;;;;;;;;;;;22.70;98.70;;;;;;4980913;28;20000;-61
2021/07/01 13:16:06;;;;;;;;;;;22.70;98.50;;;;;;4979037;28;19926;-60
2021/07/01 13:18:32;;;;;;;;;;;22.70;98.60;;;;;;4986083;28;19922;-60
2021/07/01 13:21:10;;;;;;;;;;;22.80;98.90;;;;;;4985596;28;22188;-62
2021/07/01 13:23:36;;;;;;;;;;;22.90;99.00;;;;;;4990282;28;19925;-60
2021/07/01 13:26:14;;;;;;;;;;;23.10;99.10;;;;;;4991063;28;19937;-61
2021/07/01 13:28:40;;;;;;;;;;;23.30;99.40;;;;;;4987832;28;19998;-60
2021/07/01 13:31:05;;;;;;;;;;;23.50;99.30;;;;;;4981134;28;19971;-60
2021/07/01 13:33:31;;;;;;;;;;;23.60;99.30;;;;;;4987284;28;19918;-60
2021/07/01 13:35:57;;;;;;;;;;;23.60;98.50;;;;;;4988852;28;19925;-60
2021/07/01 13:38:24;;;;;;;;;;;23.60;98.40;;;;;;4982663;28;19922;-61
2021/07/01 13:40:51;;;;;;;;;;;23.50;98.10;;;;;;4986543;28;19956;-60
2021/07/01 13:43:18;;;;;;;;;;;23.20;97.50;;;;;;4989662;28;19914;-61
2021/07/01 13:45:45;;;;;;;;;;;22.90;97.80;;;;;;4991172;28;19918;-60
2021/07/01 13:48:21;;;;;;;;;;;22.60;97.90;;;;;;4980156;28;19918;-60
2021/07/01 13:50:47;;;;;;;;;;;22.40;98.10;;;;;;4978959;28;19933;-60
2021/07/01 13:53:15;;;;;;;;;;;22.20;98.20;;;;;;4987770;28;19922;-59
2021/07/01 13:55:49;;;;;;;;;;;21.90;98.30;;;;;;4989816;28;19918;-60
2021/07/01 13:58:18;;;;;;;;;;;21.70;98.40;;;;;;4989285;28;19953;-60
2021/07/01 14:00:45;;;;;;;;;;;21.50;98.50;;;;;;4976421;28;19917;-61
2021/07/01 14:03:15;;;;;;;;;;;21.30;98.60;;;;;;4999564;28;19918;-60
2021/07/01 14:05:48;;;;;;;;;;;21.20;98.70;;;;;;4986266;28;19944;-60
2021/07/01 14:08:23;;;;;;;;;;;21.10;98.80;;;;;;4983936;28;19924;-60
2021/07/01 14:10:56;;;;;;;;;;;21.00;99.10;;;;;;4986822;28;20018;-61
2021/07/01 14:13:21;;;;;;;;;;;20.90;99.20;;;;;;4978769;28;20073;-60
2021/07/01 14:15:47;;;;;;;;;;;21.00;99.30;;;;;;4988433;28;19941;-60
2021/07/01 14:18:13;;;;;;;;;;;20.90;99.20;;;;;;4988504;28;20030;-60
2021/07/01 14:20:39;;;;;;;;;;;20.90;99.10;;;;;;4987465;28;19925;-60
2021/07/01 14:23:16;;;;;;;;;;;20.80;99.10;;;;;;4980073;28;19928;-60
2021/07/01 14:25:42;;;;;;;;;;;20.70;99.20;;;;;;4982916;28;19930;-60
2021/07/01 14:28:12;;;;;;;;;;;20.80;99.50;;;;;;4988913;28;19921;-60
2021/07/01 14:30:43;;;;;;;;;;;20.90;99.60;;;;;;4978903;28;20354;-60
2021/07/01 14:33:28;;;;;;;;;;;20.90;99.60;;;;;;4994753;28;19922;-60
2021/07/01 14:36:07;;;;;;;;;;;21.00;99.60;;;;;;4983089;28;19941;-60